TimeEST,TemperatureF,Dew PointF,Humidity,Sea Level PressureIn,VisibilityMPH,Wind Direction,Wind SpeedMPH,Gust SpeedMPH,PrecipitationIn,Events,Conditions,WindDirDegrees,DateUTC
12:53 AM,44.1,19.0,37,29.98,10.0,WNW,9.2,-,N/A,,Clear,300,2014-01-18 05:53:00
1:53 AM,42.1,18.0,38,30.00,10.0,WNW,12.7,-,N/A,,Clear,300,2014-01-18 06:53:00
2:53 AM,39.0,18.0,43,30.02,10.0,WNW,11.5,-,N/A,,Clear,290,2014-01-18 07:53:00
3:53 AM,37.9,18.0,45,30.04,10.0,WNW,13.8,-,N/A,,Clear,290,2014-01-18 08:53:00
4:53 AM,36.0,14.0,41,30.05,10.0,West,18.4,27.6,N/A,,Clear,270,2014-01-18 09:53:00
5:53 AM,34.0,12.9,42,30.06,10.0,West,9.2,-,N/A,,Clear,280,2014-01-18 10:53:00
6:53 AM,32.0,12.9,45,30.09,10.0,West,12.7,-,N/A,,Clear,270,2014-01-18 11:53:00
7:53 AM,32.0,12.9,45,30.12,10.0,West,10.4,-,N/A,,Clear,270,2014-01-18 12:53:00
8:53 AM,34.0,14.0,44,30.14,10.0,West,12.7,21.9,N/A,,Clear,280,2014-01-18 13:53:00
9:53 AM,35.1,12.9,40,30.16,10.0,WNW,17.3,26.5,N/A,,Clear,290,2014-01-18 14:53:00
10:53 AM,37.9,12.9,36,30.16,10.0,WNW,16.1,21.9,N/A,,Clear,290,2014-01-18 15:53:00
11:53 AM,39.9,12.9,33,30.14,10.0,WNW,12.7,21.9,N/A,,Clear,300,2014-01-18 16:53:00
12:53 PM,42.1,12.9,31,30.11,10.0,West,13.8,26.5,N/A,,Clear,280,2014-01-18 17:53:00
1:53 PM,45.0,14.0,29,30.08,10.0,West,16.1,-,N/A,,Clear,270,2014-01-18 18:53:00
2:53 PM,46.0,12.0,25,30.08,10.0,West,17.3,-,N/A,,Clear,270,2014-01-18 19:53:00
3:53 PM,46.0,12.9,26,30.08,10.0,West,13.8,-,N/A,,Clear,260,2014-01-18 20:53:00
4:53 PM,45.0,12.0,26,30.08,10.0,WNW,11.5,-,N/A,,Clear,290,2014-01-18 21:53:00
5:53 PM,42.1,14.0,32,30.09,10.0,West,8.1,-,N/A,,Clear,270,2014-01-18 22:53:00
6:53 PM,39.0,17.1,41,30.10,10.0,WSW,8.1,-,N/A,,Clear,240,2014-01-18 23:53:00
7:53 PM,37.0,16.0,42,30.11,10.0,SW,4.6,-,N/A,,Clear,220,2014-01-19 00:53:00
8:53 PM,35.1,18.0,50,30.10,10.0,SSW,5.8,-,N/A,,Clear,200,2014-01-19 01:53:00
9:53 PM,35.1,18.0,50,30.09,10.0,South,4.6,-,N/A,,Clear,180,2014-01-19 02:53:00
10:53 PM,34.0,19.0,54,30.09,10.0,SSW,5.8,-,N/A,,Clear,210,2014-01-19 03:53:00
11:53 PM,34.0,19.0,54,30.09,10.0,WNW,3.5,-,N/A,,Clear,290,2014-01-19 04:53:00